Time;durP1;ratioP1;P1;durP2;ratioP2;P2;SDS_P1;SDS_P2;PMS_P1;PMS_P2;Temp;Humidity;BMP_temperature;BMP_pressure;BME280_temperature;BME280_humidity;BME280_pressure;Samples;Min_cycle;Max_cycle;Signal;HPM_P1;HPM_P2
2021/06/13 03:22:34;;;;;;;124.57;117.87;;;9.10;99.90;;;;;;6068143;23;20499;-83
2021/06/13 04:24:31;;;;;;;159.07;149.60;;;9.60;99.90;;;;;;6124925;23;20476;-79
2021/06/13 05:09:28;;;;;;;144.63;134.83;;;11.20;99.90;;;;;;6130104;23;20469;-77
2021/06/13 05:11:55;;;;;;;133.30;125.40;;;11.30;99.90;;;;;;6108140;23;20412;-76
2021/06/13 05:14:22;;;;;;;127.03;119.23;;;11.40;99.90;;;;;;6098124;23;20434;-77
2021/06/13 05:16:48;;;;;;;116.57;110.10;;;11.50;99.90;;;;;;6098578;23;20404;-79
2021/06/13 05:19:15;;;;;;;108.80;102.17;;;11.80;99.90;;;;;;6097112;23;20403;-78
2021/06/13 06:39:19;;;;;;;64.00;16.90;;;19.30;25.00;;;;;;6125486;23;20778;-81
2021/06/13 06:41:47;;;;;;;64.70;18.93;;;18.50;24.30;;;;;;6126704;23;20407;-81
2021/06/13 06:44:14;;;;;;;65.47;15.40;;;18.90;24.00;;;;;;6126875;23;20425;-81
2021/06/13 06:46:41;;;;;;;73.60;15.87;;;19.00;26.30;;;;;;6126787;23;20486;-81
2021/06/13 07:14:28;;;;;;;66.88;8.38;;;19.00;18.90;;;;;;6066999;23;20430;-77
2021/06/13 07:16:55;;;;;;;61.07;7.80;;;19.10;19.10;;;;;;6068649;23;20182;-76
2021/06/13 07:19:21;;;;;;;65.30;6.80;;;19.00;19.00;;;;;;6066924;23;20774;-76
2021/06/13 09:19:32;;;;;;;58.53;5.07;;;21.40;1.00;;;;;;6128461;23;20520;31
2021/06/13 10:01:32;;;;;;;66.40;11.40;;;24.10;1.00;;;;;;5990325;23;20577;-81
2021/06/13 10:04:01;;;;;;;64.27;9.40;;;24.60;1.00;;;;;;6091380;23;20507;-79
2021/06/13 10:06:33;;;;;;;63.53;7.77;;;24.00;1.00;;;;;;6122957;23;20543;-79
2021/06/13 10:09:01;;;;;;;65.67;12.63;;;23.20;1.00;;;;;;6152148;23;20462;-79
2021/06/13 10:11:28;;;;;;;68.60;12.50;;;23.40;1.00;;;;;;6154318;23;20489;-79
2021/06/13 10:13:57;;;;;;;65.33;9.83;;;23.70;1.00;;;;;;6155339;23;20703;-80
2021/06/13 10:16:33;;;;;;;68.10;11.83;;;23.90;1.00;;;;;;6154835;23;20524;-79
2021/06/13 10:19:06;;;;;;;64.13;10.90;;;23.40;1.00;;;;;;6153615;23;20398;-79
2021/06/13 10:21:37;;;;;;;63.37;8.17;;;23.60;1.00;;;;;;6155144;23;20945;-80
2021/06/13 10:24:11;;;;;;;65.07;8.57;;;23.90;1.00;;;;;;6156029;23;20716;-80
2021/06/13 10:26:40;;;;;;;64.77;8.47;;;24.30;1.00;;;;;;6156192;23;20796;-80
2021/06/13 10:29:07;;;;;;;64.90;11.77;;;24.60;1.00;;;;;;6156200;23;20489;-80
2021/06/13 10:31:36;;;;;;;67.23;12.00;;;24.40;1.00;;;;;;6155862;23;20497;-81
2021/06/13 10:34:04;;;;;;;64.47;9.80;;;24.90;1.00;;;;;;6164068;23;20455;-80
2021/06/13 10:36:33;;;;;;;66.17;10.00;;;24.60;1.00;;;;;;6156499;23;20440;-80
2021/06/13 10:39:00;;;;;;;67.93;12.20;;;24.30;1.00;;;;;;6156473;23;20381;-80
2021/06/13 10:41:27;;;;;;;68.20;12.10;;;24.10;1.00;;;;;;6165795;23;20420;-82
2021/06/13 10:44:00;;;;;;;68.30;7.73;;;24.80;1.00;;;;;;6156261;23;20413;-79
2021/06/13 10:46:29;;;;;;;72.23;12.23;;;24.80;1.00;;;;;;6155400;23;20408;-80
2021/06/13 10:48:59;;;;;;;69.27;13.53;;;25.10;1.00;;;;;;6154319;23;20494;-80
2021/06/13 10:51:35;;;;;;;71.73;11.60;;;24.70;1.00;;;;;;6155305;23;20402;-80
2021/06/13 10:54:25;;;;;;;66.30;10.47;;;25.20;1.00;;;;;;6156325;23;20811;-80
2021/06/13 10:56:54;;;;;;;69.20;12.60;;;25.60;1.00;;;;;;6156092;23;20731;-80
2021/06/13 10:59:21;;;;;;;71.13;13.13;;;24.90;1.00;;;;;;6155463;23;20441;-80
2021/06/13 11:02:09;;;;;;;70.37;9.00;;;25.80;1.00;;;;;;6156084;23;20406;-79
2021/06/13 11:04:45;;;;;;;72.70;8.40;;;27.40;1.00;;;;;;6154793;23;20402;-81
2021/06/13 11:07:12;;;;;;;70.77;8.33;;;26.90;1.00;;;;;;6155762;23;20488;-80
2021/06/13 11:10:15;;;;;;;70.93;9.17;;;27.20;1.00;;;;;;6155779;23;20441;-81
2021/06/13 11:12:46;;;;;;;66.37;7.00;;;26.20;1.00;;;;;;6155541;23;20406;-80
2021/06/13 11:15:15;;;;;;;69.20;7.57;;;26.90;1.00;;;;;;6155423;23;20730;-80
2021/06/13 11:17:54;;;;;;;72.50;8.03;;;25.30;1.00;;;;;;6155486;23;20406;-80
2021/06/13 11:20:43;;;;;;;68.80;9.30;;;25.80;1.00;;;;;;6154537;23;20397;-80
2021/06/13 11:23:15;;;;;;;69.10;8.50;;;25.90;1.00;;;;;;6155978;23;20472;-80
2021/06/13 11:25:42;;;;;;;67.70;7.20;;;25.70;1.00;;;;;;6155745;23;20722;-80
2021/06/13 11:28:11;;;;;;;67.93;9.40;;;25.60;1.00;;;;;;6165282;23;20485;-80
2021/06/13 11:30:40;;;;;;;68.50;9.30;;;26.80;1.00;;;;;;6156253;23;20480;-80
2021/06/13 11:33:08;;;;;;;68.40;10.17;;;27.30;1.00;;;;;;6156077;23;20409;-80
2021/06/13 11:35:43;;;;;;;68.33;9.37;;;28.00;1.00;;;;;;6153911;23;20948;-80
2021/06/13 11:38:27;;;;;;;71.20;10.80;;;28.80;1.00;;;;;;6156057;23;20881;-80
2021/06/13 11:40:56;;;;;;;67.17;10.10;;;28.20;1.00;;;;;;6155773;23;20448;-80
2021/06/13 11:43:26;;;;;;;70.70;7.73;;;28.60;1.00;;;;;;6156033;23;20768;-80
2021/06/13 11:45:55;;;;;;;72.47;8.77;;;29.00;1.00;;;;;;6165997;23;20433;-80
2021/06/13 11:48:23;;;;;;;71.17;10.20;;;29.00;1.00;;;;;;6154591;23;20402;-79
2021/06/13 11:51:10;;;;;;;72.27;10.10;;;28.90;1.00;;;;;;6155455;23;20373;-82
2021/06/13 11:53:55;;;;;;;73.63;17.23;;;29.30;1.00;;;;;;6155303;23;20408;-80
2021/06/13 11:56:44;;;;;;;69.57;13.50;;;29.60;1.00;;;;;;6155020;23;20952;-78
2021/06/13 11:59:14;;;;;;;71.57;18.13;;;28.70;1.00;;;;;;6156363;23;20734;-79
2021/06/13 12:01:45;;;;;;;71.50;11.47;;;29.40;1.00;;;;;;6156458;23;20462;-79
2021/06/13 12:04:14;;;;;;;69.03;13.03;;;27.60;1.00;;;;;;6155352;23;20455;-80
2021/06/13 12:06:43;;;;;;;72.70;18.30;;;26.90;1.00;;;;;;6156172;23;20398;-80
2021/06/13 12:09:12;;;;;;;70.20;10.70;;;27.30;1.00;;;;;;6156355;23;20398;-79
2021/06/13 12:11:45;;;;;;;73.10;15.10;;;27.20;1.00;;;;;;6129961;23;20437;-80
2021/06/13 12:14:27;;;;;;;67.00;9.77;;;27.50;1.00;;;;;;6156307;23;20456;-79
2021/06/13 12:16:57;;;;;;;71.40;8.17;;;27.40;1.00;;;;;;6156109;23;20489;-79
2021/06/13 12:19:36;;;;;;;71.43;10.10;;;28.50;1.00;;;;;;6154714;23;20402;-79
2021/06/13 12:22:30;;;;;;;70.00;9.30;;;28.10;1.00;;;;;;6155771;23;20470;-83
2021/06/13 12:27:46;;;;;;;66.57;8.83;;;27.20;1.00;;;;;;6150827;23;20375;-82
2021/06/13 12:30:15;;;;;;;66.07;7.40;;;26.80;1.00;;;;;;6163607;23;20418;-81
2021/06/13 12:32:52;;;;;;;67.60;8.17;;;26.90;1.00;;;;;;6153617;23;20402;-81
2021/06/13 12:35:20;;;;;;;67.80;7.87;;;28.10;1.00;;;;;;6152465;23;20405;-81
2021/06/13 12:38:00;;;;;;;66.93;8.13;;;28.30;1.00;;;;;;6154263;23;20490;-80
2021/06/13 12:40:27;;;;;;;70.77;9.33;;;28.20;1.00;;;;;;6154574;23;20428;-81
2021/06/13 12:42:54;;;;;;;68.17;9.10;;;28.10;1.00;;;;;;6165343;23;20895;-82
2021/06/13 12:45:23;;;;;;;68.40;10.07;;;28.80;1.00;;;;;;6155085;23;20384;-82
2021/06/13 12:47:57;;;;;;;67.47;10.50;;;28.30;1.00;;;;;;6157414;23;20406;-80
2021/06/13 12:50:26;;;;;;;68.80;9.73;;;27.50;1.00;;;;;;6155871;23;20484;-80
2021/06/13 12:52:55;;;;;;;70.13;7.60;;;27.80;1.00;;;;;;6167181;23;20463;-80
2021/06/13 12:55:26;;;;;;;69.70;8.20;;;28.20;1.00;;;;;;6157515;23;20402;-80
2021/06/13 12:57:53;;;;;;;66.37;8.43;;;28.70;1.00;;;;;;6157575;23;20456;-80
2021/06/13 13:00:22;;;;;;;68.80;16.47;;;30.40;1.00;;;;;;6167427;23;20410;-79
2021/06/13 13:03:05;;;;;;;71.40;16.67;;;31.20;1.00;;;;;;6157732;23;20497;-79
2021/06/13 13:05:32;;;;;;;69.43;18.37;;;31.40;1.00;;;;;;6156251;23;20410;-80
2021/06/13 13:08:15;;;;;;;71.80;14.90;;;29.80;1.00;;;;;;6157284;23;20398;-80
2021/06/13 13:10:57;;;;;;;70.70;17.43;;;29.80;1.00;;;;;;6157661;23;20480;-80
2021/06/13 13:13:26;;;;;;;71.67;16.30;;;29.80;1.00;;;;;;6157147;23;20433;-80
2021/06/13 13:15:53;;;;;;;71.60;16.40;;;29.50;1.00;;;;;;6157373;23;20488;-81
2021/06/13 13:18:21;;;;;;;72.87;15.50;;;29.90;1.00;;;;;;6156569;23;20485;-81
2021/06/13 13:20:49;;;;;;;72.23;14.27;;;30.40;1.00;;;;;;6156923;23;20481;-81
2021/06/13 13:23:16;;;;;;;68.90;14.00;;;29.60;1.00;;;;;;6157536;23;20413;-81
2021/06/13 13:25:47;;;;;;;72.90;16.73;;;28.70;1.00;;;;;;6157483;23;20412;-80
2021/06/13 13:28:25;;;;;;;71.07;18.93;;;27.80;1.00;;;;;;6157477;23;20695;-81
2021/06/13 13:30:54;;;;;;;66.50;10.60;;;28.50;1.00;;;;;;6156763;23;20376;-80
2021/06/13 13:33:34;;;;;;;69.93;12.90;;;28.90;1.00;;;;;;6155821;23;20489;-80
2021/06/13 13:36:01;;;;;;;68.87;16.60;;;28.80;1.00;;;;;;6157032;23;20430;-81
2021/06/13 13:38:40;;;;;;;72.90;15.50;;;29.60;1.00;;;;;;6156806;23;20403;-80
2021/06/13 13:41:11;;;;;;;69.60;11.70;;;29.30;1.00;;;;;;6157128;23;20387;-80
2021/06/13 13:43:39;;;;;;;66.73;9.20;;;28.10;1.00;;;;;;6156665;23;20463;-80
2021/06/13 13:46:25;;;;;;;65.37;9.70;;;27.60;1.00;;;;;;6157009;23;20504;-81
2021/06/13 13:48:53;;;;;;;68.30;9.40;;;27.30;1.00;;;;;;6155604;23;20426;-80
2021/06/13 13:51:20;;;;;;;64.27;7.13;;;27.00;1.00;;;;;;6156411;23;20490;-81
2021/06/13 13:53:47;;;;;;;66.40;7.47;;;27.80;1.00;;;;;;6157214;23;20464;-80
2021/06/13 13:56:20;;;;;;;68.37;8.00;;;28.30;1.00;;;;;;6156789;23;20980;-81
2021/06/13 13:58:48;;;;;;;66.10;9.60;;;28.20;1.00;;;;;;6156315;23;20406;-80
2021/06/13 14:01:15;;;;;;;65.93;8.23;;;27.60;1.00;;;;;;6156863;23;20402;-80
2021/06/13 14:03:42;;;;;;;67.27;9.63;;;27.30;1.00;;;;;;6155475;23;20402;-81
2021/06/13 14:06:09;;;;;;;68.23;8.60;;;27.40;1.00;;;;;;6156840;23;20380;-80
2021/06/13 14:08:40;;;;;;;68.03;10.13;;;28.50;1.00;;;;;;6156860;23;20428;-82
2021/06/13 14:11:07;;;;;;;70.27;9.67;;;28.70;1.00;;;;;;6156916;23;20745;-82
2021/06/13 14:13:35;;;;;;;68.70;11.30;;;29.50;1.00;;;;;;6156375;23;20409;-83
2021/06/13 14:16:02;;;;;;;70.67;11.93;;;30.70;1.00;;;;;;6156498;23;20432;-83
2021/06/13 14:18:29;;;;;;;69.63;13.07;;;30.00;1.00;;;;;;6154840;23;20383;-83
2021/06/13 14:20:56;;;;;;;70.00;13.03;;;29.50;1.00;;;;;;6166963;23;20437;-85
2021/06/13 14:23:23;;;;;;;70.37;11.83;;;28.70;1.00;;;;;;6166153;23;20406;-84
2021/06/13 14:25:50;;;;;;;69.87;11.90;;;29.20;1.00;;;;;;6156878;23;20416;-82
2021/06/13 14:28:17;;;;;;;74.23;13.07;;;30.10;1.00;;;;;;6156086;23;20784;-87
2021/06/13 14:30:45;;;;;;;70.57;10.53;;;30.70;1.00;;;;;;6157139;23;20497;-83
2021/06/13 14:33:14;;;;;;;69.67;13.10;;;30.30;1.00;;;;;;6156333;23;20870;-82
2021/06/13 14:35:42;;;;;;;74.33;14.00;;;28.50;1.00;;;;;;6154980;23;20966;-82
2021/06/13 14:38:08;;;;;;;73.93;12.90;;;27.90;1.00;;;;;;6156851;23;20385;-86
2021/06/13 14:40:35;;;;;;;70.23;18.60;;;27.80;1.00;;;;;;6156188;23;20497;-88
2021/06/13 14:43:02;;;;;;;69.70;13.50;;;28.70;1.00;;;;;;6156708;23;20377;-86
2021/06/13 14:45:29;;;;;;;68.37;10.67;;;28.10;1.00;;;;;;6165923;23;20488;-85
2021/06/13 14:47:57;;;;;;;69.50;18.73;;;27.80;1.00;;;;;;6156538;23;20402;-84
2021/06/13 14:50:24;;;;;;;69.97;14.13;;;28.10;1.00;;;;;;6154848;23;20409;-86
2021/06/13 14:52:51;;;;;;;67.23;11.40;;;28.80;1.00;;;;;;6165973;23;20790;-87
2021/06/13 14:55:18;;;;;;;69.60;17.93;;;29.80;1.00;;;;;;6165843;23;20764;-86
2021/06/13 14:57:45;;;;;;;72.67;17.67;;;29.30;1.00;;;;;;6155682;23;20419;-82
2021/06/13 15:00:13;;;;;;;70.87;18.50;;;29.40;1.00;;;;;;6165285;23;20505;-82
2021/06/13 15:02:41;;;;;;;72.30;18.27;;;29.40;1.00;;;;;;6155949;23;20402;-84
2021/06/13 15:05:10;;;;;;;69.67;13.80;;;29.10;1.00;;;;;;6154102;23;20465;-84
2021/06/13 15:07:37;;;;;;;69.60;13.97;;;28.30;1.00;;;;;;6165834;23;20437;-83
2021/06/13 15:10:05;;;;;;;68.40;13.30;;;28.70;1.00;;;;;;6165669;23;20894;-82
2021/06/13 15:12:32;;;;;;;71.27;20.30;;;29.70;1.00;;;;;;6156012;23;20912;-82
2021/06/13 15:14:59;;;;;;;69.10;11.87;;;28.70;1.00;;;;;;6156539;23;20428;-85
2021/06/13 15:17:26;;;;;;;70.27;12.67;;;28.50;1.00;;;;;;6156896;23;20495;-87
2021/06/13 15:19:53;;;;;;;70.47;11.93;;;28.90;1.00;;;;;;6165046;23;20504;-87
2021/06/13 15:22:23;;;;;;;70.73;12.60;;;28.70;1.00;;;;;;6156473;23;20412;-85
2021/06/13 15:24:49;;;;;;;73.90;19.60;;;28.70;1.00;;;;;;6165729;23;20476;-84
2021/06/13 15:27:17;;;;;;;68.23;12.97;;;29.10;1.00;;;;;;6165612;23;20388;-85
2021/06/13 15:29:44;;;;;;;71.43;13.17;;;29.90;1.00;;;;;;6165920;23;20770;-83
2021/06/13 15:32:12;;;;;;;78.00;17.53;;;29.10;1.00;;;;;;6156356;23;20675;-81
2021/06/13 15:34:39;;;;;;;69.50;11.53;;;28.30;1.00;;;;;;6154632;23;20694;-80
2021/06/13 15:37:06;;;;;;;70.73;12.60;;;27.70;1.00;;;;;;6156553;23;20434;-82
2021/06/13 15:39:35;;;;;;;68.60;12.67;;;27.30;1.00;;;;;;6166609;23;20420;-83
2021/06/13 15:42:04;;;;;;;67.97;10.37;;;27.80;1.00;;;;;;6166057;23;20462;-83
2021/06/13 15:44:33;;;;;;;69.30;10.87;;;28.70;1.00;;;;;;6156172;23;20412;-82
2021/06/13 15:47:01;;;;;;;67.17;11.30;;;29.40;1.00;;;;;;6155666;23;20489;-83
2021/06/13 15:49:29;;;;;;;75.67;21.93;;;29.30;1.00;;;;;;6154470;23;20917;-82
2021/06/13 15:51:57;;;;;;;71.67;13.80;;;29.10;1.00;;;;;;6156014;23;20430;-83
2021/06/13 15:54:27;;;;;;;70.70;13.90;;;29.50;1.00;;;;;;6155956;23;20376;-82
2021/06/13 15:56:57;;;;;;;73.03;13.27;;;29.80;1.00;;;;;;6156086;23;20400;-82
2021/06/13 15:59:26;;;;;;;69.67;14.10;;;29.00;1.00;;;;;;6165210;23;20725;-82
2021/06/13 16:01:54;;;;;;;69.80;14.00;;;29.20;1.00;;;;;;6166105;23;20437;-84
2021/06/13 16:04:21;;;;;;;73.63;13.77;;;28.80;1.00;;;;;;6164562;23;20798;-85
2021/06/13 16:06:49;;;;;;;67.87;11.07;;;28.60;1.00;;;;;;6156338;23;20827;-82
2021/06/13 16:09:16;;;;;;;72.17;18.57;;;28.70;1.00;;;;;;6155978;23;20406;-82
2021/06/13 16:11:45;;;;;;;77.90;14.37;;;28.60;1.00;;;;;;6155685;23;20384;-83
2021/06/13 16:14:13;;;;;;;72.43;13.73;;;29.40;1.00;;;;;;6155193;23;20453;-87
2021/06/13 16:16:40;;;;;;;68.47;12.53;;;29.30;1.00;;;;;;6165168;23;20899;-85
2021/06/13 16:19:07;;;;;;;70.73;12.63;;;29.40;1.00;;;;;;6153838;23;20392;-88
2021/06/13 16:21:34;;;;;;;72.87;23.63;;;29.40;1.00;;;;;;6156234;23;20433;-86
2021/06/13 16:24:00;;;;;;;70.70;12.50;;;29.70;1.00;;;;;;6167283;23;20409;-85
2021/06/13 16:26:27;;;;;;;71.10;20.33;;;28.80;1.00;;;;;;6156924;23;20427;-85
2021/06/13 16:28:54;;;;;;;69.40;10.60;;;28.30;1.00;;;;;;6157704;23;20467;-84
2021/06/13 16:31:23;;;;;;;72.40;21.53;;;28.40;1.00;;;;;;6167800;23;20406;-83
2021/06/13 16:33:54;;;;;;;69.37;10.70;;;29.00;1.00;;;;;;6166373;23;20800;-85
2021/06/13 16:36:21;;;;;;;73.00;22.20;;;29.70;1.00;;;;;;6166999;23;20956;-81
2021/06/13 16:38:47;;;;;;;68.60;11.67;;;29.80;1.00;;;;;;6167272;23;20476;-82
2021/06/13 16:41:14;;;;;;;70.03;19.67;;;30.50;1.00;;;;;;6157594;23;20402;-82
2021/06/13 16:43:41;;;;;;;73.50;23.07;;;31.00;1.00;;;;;;6157761;23;20677;-81
2021/06/13 16:46:08;;;;;;;72.50;13.20;;;30.80;1.00;;;;;;6157760;23;20405;-82
2021/06/13 16:48:36;;;;;;;70.00;18.07;;;31.60;1.00;;;;;;6156312;23;20408;-82
2021/06/13 16:51:03;;;;;;;69.00;12.07;;;29.90;1.00;;;;;;6157905;23;20394;-82
2021/06/13 16:53:30;;;;;;;68.43;11.30;;;29.50;1.00;;;;;;6156927;23;20408;-81
2021/06/13 16:55:57;;;;;;;69.17;10.50;;;29.30;1.00;;;;;;6167126;23;20424;-81
2021/06/13 16:58:24;;;;;;;70.40;17.30;;;29.40;1.00;;;;;;6167323;23;20447;-82
2021/06/13 17:00:50;;;;;;;68.37;8.30;;;29.10;1.00;;;;;;6167074;23;20410;-82
2021/06/13 17:03:18;;;;;;;67.97;12.87;;;28.90;1.00;;;;;;6156652;23;20379;-85
2021/06/13 17:05:46;;;;;;;69.27;12.93;;;29.00;1.00;;;;;;6165838;23;20385;-81
2021/06/13 17:08:13;;;;;;;70.10;7.17;;;29.50;1.00;;;;;;6156643;23;20748;-81
2021/06/13 17:10:40;;;;;;;65.57;10.53;;;29.90;1.00;;;;;;6164028;23;20387;-82
2021/06/13 17:13:06;;;;;;;65.57;6.40;;;30.90;1.00;;;;;;6154675;23;20410;-80
2021/06/13 17:15:33;;;;;;;69.90;14.10;;;30.90;1.00;;;;;;6165204;23;20489;-81
2021/06/13 17:18:00;;;;;;;65.40;6.40;;;30.50;1.00;;;;;;6156015;23;20416;-82
2021/06/13 17:20:27;;;;;;;68.90;10.37;;;30.20;1.00;;;;;;6163802;23;20388;-81
2021/06/13 17:23:03;;;;;;;72.27;6.03;;;29.90;1.00;;;;;;6155479;23;20402;-82
2021/06/13 17:25:33;;;;;;;66.97;5.73;;;29.90;1.00;;;;;;6155471;23;20408;-80
2021/06/13 17:28:02;;;;;;;66.33;5.77;;;30.40;1.00;;;;;;6155075;23;20380;-81
2021/06/13 17:30:29;;;;;;;65.77;5.73;;;30.50;1.00;;;;;;6155030;23;20402;-80
2021/06/13 17:32:56;;;;;;;70.37;5.90;;;30.70;1.00;;;;;;6154995;23;20412;-81
2021/06/13 17:35:25;;;;;;;67.10;5.70;;;30.40;1.00;;;;;;6153738;23;20377;-81
2021/06/13 17:37:52;;;;;;;65.43;9.13;;;31.30;1.00;;;;;;6155473;23;20438;-81
2021/06/13 17:40:21;;;;;;;65.57;8.73;;;31.30;1.00;;;;;;6166097;23;20472;-79
2021/06/13 17:42:50;;;;;;;67.20;6.40;;;31.60;1.00;;;;;;6157116;23;20376;-81
2021/06/13 17:45:18;;;;;;;65.70;10.10;;;31.30;1.00;;;;;;6156790;23;20385;-81
2021/06/13 17:47:46;;;;;;;69.50;6.60;;;31.60;1.00;;;;;;6156916;23;20451;-80
2021/06/13 17:50:14;;;;;;;68.37;9.40;;;31.30;1.00;;;;;;6155669;23;20771;-81
2021/06/13 17:52:41;;;;;;;65.87;6.20;;;31.20;1.00;;;;;;6156537;23;20439;-81
2021/06/13 17:55:10;;;;;;;67.07;10.20;;;31.30;1.00;;;;;;6166319;23;20406;-80
2021/06/13 17:57:38;;;;;;;66.17;7.77;;;31.40;1.00;;;;;;6156923;23;20456;-81
2021/06/13 18:00:06;;;;;;;68.37;12.07;;;31.60;1.00;;;;;;6156890;23;20756;-80
2021/06/13 18:02:33;;;;;;;66.43;10.97;;;32.00;1.00;;;;;;6166442;23;20444;-80
2021/06/13 18:04:59;;;;;;;71.83;9.23;;;31.90;1.00;;;;;;6155390;23;20402;-81
2021/06/13 18:07:26;;;;;;;68.90;11.33;;;31.40;1.00;;;;;;6156929;23;20409;-80
2021/06/13 18:09:53;;;;;;;74.50;9.87;;;31.10;1.00;;;;;;6166334;23;20493;-80
2021/06/13 18:12:23;;;;;;;68.07;13.10;;;30.10;1.00;;;;;;6156948;23;20763;-80
2021/06/13 18:14:51;;;;;;;66.67;8.80;;;29.90;1.00;;;;;;6156656;23;20745;-80
2021/06/13 18:17:18;;;;;;;68.33;13.57;;;29.80;1.00;;;;;;6156569;23;20453;-80
2021/06/13 18:19:45;;;;;;;67.83;14.33;;;30.00;1.00;;;;;;6164657;23;20424;-80
2021/06/13 18:22:11;;;;;;;64.60;12.83;;;30.70;1.00;;;;;;6156943;23;20493;-80
2021/06/13 18:24:40;;;;;;;66.00;7.10;;;30.90;1.00;;;;;;6166310;23;20777;-81
2021/06/13 18:27:07;;;;;;;67.83;10.70;;;30.10;1.00;;;;;;6156512;23;20417;-81
2021/06/13 18:29:35;;;;;;;64.70;10.70;;;29.40;1.00;;;;;;6129508;23;20414;-81
2021/06/13 18:32:03;;;;;;;68.90;11.70;;;29.40;1.00;;;;;;6156530;23;20485;-81
2021/06/13 18:34:30;;;;;;;64.60;6.60;;;28.90;1.00;;;;;;6155131;23;20488;-80
2021/06/13 18:36:57;;;;;;;64.60;9.90;;;29.90;1.00;;;;;;6156488;23;20778;-81
2021/06/13 18:39:24;;;;;;;62.63;8.93;;;30.50;1.00;;;;;;6156719;23;20442;-80
2021/06/13 18:41:51;;;;;;;65.67;5.67;;;30.40;1.00;;;;;;6156465;23;20412;-81
2021/06/13 18:44:18;;;;;;;61.83;8.33;;;30.20;1.00;;;;;;6156633;23;20481;-81
2021/06/13 18:46:45;;;;;;;65.77;8.07;;;30.00;1.00;;;;;;6156468;23;20402;-81
2021/06/13 18:49:13;;;;;;;62.20;9.83;;;29.80;1.00;;;;;;6164629;23;20422;-81
2021/06/13 18:51:41;;;;;;;65.60;5.93;;;29.90;1.00;;;;;;6156126;23;20496;-81
2021/06/13 18:54:08;;;;;;;63.70;7.40;;;29.40;1.00;;;;;;6156177;23;20384;-81
2021/06/13 18:56:34;;;;;;;62.87;6.20;;;29.40;1.00;;;;;;6165863;23;20389;-79
2021/06/13 18:59:01;;;;;;;59.40;6.93;;;29.50;1.00;;;;;;6165951;23;20434;-80
2021/06/13 19:01:28;;;;;;;59.97;6.43;;;29.10;1.00;;;;;;6156495;23;20749;-81
2021/06/13 19:03:55;;;;;;;58.83;5.10;;;28.80;1.00;;;;;;6154946;23;20377;-80
2021/06/13 19:06:24;;;;;;;59.13;7.13;;;28.50;1.00;;;;;;6166345;23;20493;-81
2021/06/13 19:08:50;;;;;;;59.30;7.90;;;28.20;1.00;;;;;;6155925;23;20496;-82
2021/06/13 19:11:17;;;;;;;65.50;7.57;;;27.90;1.00;;;;;;6154114;23;20398;-80
2021/06/13 19:13:45;;;;;;;61.90;6.00;;;27.40;1.00;;;;;;6155072;23;20459;-81
2021/06/13 19:16:12;;;;;;;63.20;6.97;;;26.90;1.00;;;;;;6155055;23;20441;-82
2021/06/13 19:18:40;;;;;;;60.40;6.40;;;26.30;1.00;;;;;;6153665;23;20465;-82
2021/06/13 19:21:08;;;;;;;58.67;7.30;;;25.90;1.00;;;;;;6164694;23;20406;-79
2021/06/13 19:23:36;;;;;;;54.07;7.60;;;25.30;1.00;;;;;;6154748;23;20406;-81
2021/06/13 19:26:05;;;;;;;55.03;6.30;;;24.60;1.00;;;;;;6164706;23;20489;-80
2021/06/13 19:28:32;;;;;;;50.90;5.60;;;23.40;1.00;;;;;;6164419;23;20435;-80
2021/06/13 19:31:00;;;;;;;50.57;5.10;;;22.20;1.00;;;;;;6165063;23;20463;-81
2021/06/13 19:33:27;;;;;;;48.90;6.23;;;21.30;2.80;;;;;;6153216;23;20947;-81
2021/06/13 19:35:54;;;;;;;50.47;6.17;;;20.40;8.60;;;;;;6154961;23;20398;-83
